Latest Weather Observations for Salmon Gums RS

IDW60801

Issued at 6:04 pm WST Saturday 27 August 2016 (issued every 30 minutes, with the page automatically refreshed every 10 minutes)

About weather observations | Map of weather stations | Latest weather observations for WA | Other Formats
Station Details ID: 012071 Name: SALMON GUMS RES.STN. Lat: -32.99 Lon: 121.62 Height: 249.0 m
Data from the previous 72 hours. | See also: Recent months at Salmon Gums RS
Date/Time
WST
Temp
°C
App
Temp
°C
Dew
Point
°C
Rel
Hum
%
Delta-T
°C
Wind Press
QNH
hPa
Press
MSL
hPa
Rain since
9am
mm
Dir  Spd
km/h
Gust
km/h
Spd
kts
Gust
kts
27/06:00pm 13.5 10.5 7.9 69 2.8 N 13 19 7 10 - - 0.8
27/05:30pm 14.2 10.4 7.7 65 3.3 NNW 17 24 9 13 - - 0.8
27/05:00pm 15.0 11.2 7.5 61 3.8 NNW 17 28 9 15 - - 0.8
27/04:30pm 15.5 9.8 6.8 56 4.3 NW 26 39 14 21 - - 0.8
27/04:00pm 16.1 10.8 6.8 54 4.6 NNW 24 39 13 21 - - 0.8
27/03:35pm 15.8 9.9 7.6 58 4.1 NW 28 48 15 26 - - 0.8
27/03:30pm 15.9 10.0 7.7 58 4.2 NW 28 41 15 22 - - 0.8
27/03:04pm 16.2 10.3 7.7 57 4.3 NW 28 46 15 25 - - 0.8
27/03:00pm 16.0 10.8 7.2 56 4.4 NW 24 39 13 21 - - 0.8
27/02:40pm 15.8 9.8 7.1 56 4.4 NNW 28 50 15 27 - - 0.8
27/02:30pm 15.7 10.2 7.5 58 4.1 NNW 26 37 14 20 - - 0.8
27/02:00pm 14.8 9.7 7.6 62 3.6 NW 24 35 13 19 - - 0.8
27/01:39pm 14.9 9.0 7.7 62 3.6 NW 28 48 15 26 - - 0.8
27/01:30pm 14.8 9.1 8.3 65 3.3 NW 28 43 15 23 - - 0.8
27/01:00pm 14.5 8.8 8.5 67 3.1 NW 28 44 15 24 - - 0.8
27/12:30pm 15.0 9.6 9.4 69 2.9 NNW 28 43 15 23 - - 0.8
27/12:20pm 14.6 9.0 8.8 68 3.0 NW 28 46 15 25 - - 0.8
27/12:00pm 14.7 10.4 9.3 70 2.8 NW 22 43 12 23 - - 0.8
27/11:30am 14.7 11.3 10.5 76 2.2 NNW 19 33 10 18 - - 0.8
27/11:00am 13.2 10.5 10.2 82 1.6 NNW 15 24 8 13 - - 0.6
27/10:30am 13.2 9.7 8.7 74 2.3 NW 17 26 9 14 - - 0.4
27/10:00am 15.0 11.0 6.8 58 4.1 NNW 17 26 9 14 - - 0.0
27/09:30am 15.0 10.5 6.8 58 4.1 NW 20 33 11 18 - - 0.0
27/09:00am 15.2 10.3 4.3 48 5.1 WNW 19 32 10 17 - - 0.0
27/08:30am 15.9 11.2 3.0 42 5.9 NNW 17 24 9 13 - - 0.0
27/08:00am 15.3 10.4 2.1 41 5.9 N 17 26 9 14 - - 0.0
27/07:30am 14.6 9.6 1.2 40 5.9 N 17 24 9 13 - - 0.0
27/07:00am 13.9 8.7 0.2 39 5.8 N 17 28 9 15 - - 0.0
27/06:30am 13.9 9.0 -0.2 38 5.9 N 15 24 8 13 - - 0.0
27/06:00am 13.7 8.5 0.0 39 5.8 N 17 26 9 14 - - 0.0
27/05:30am 13.0 7.8 0.4 42 5.3 N 17 26 9 14 - - 0.0
27/05:00am 12.7 8.3 0.5 43 5.2 N 13 22 7 12 - - 0.0
27/04:30am 13.2 9.2 0.6 42 5.4 N 11 15 6 8 - - 0.0
27/04:00am 13.8 9.8 0.8 41 5.6 N 11 20 6 11 - - 0.0
27/03:30am 12.9 9.7 0.6 43 5.2 NNW 7 13 4 7 - - 0.0
27/03:00am 14.6 9.8 0.1 37 6.2 N 15 22 8 12 - - 0.0
27/02:30am 15.2 9.4 0.2 36 6.5 N 20 33 11 18 - - 0.0
27/02:00am 15.6 9.1 0.2 35 6.7 N 24 35 13 19 - - 0.0
27/01:30am 15.4 9.7 0.4 36 6.5 N 20 33 11 18 - - 0.0
27/01:00am 15.1 9.6 0.9 38 6.2 N 19 30 10 16 - - 0.0
27/12:30am 14.4 9.4 1.3 41 5.7 N 17 26 9 14 - - 0.0
27/12:00am 14.5 9.9 1.4 41 5.8 NNE 15 30 8 16 - - 0.0
 
Date/Time
WST
Temp
°C
App
Temp
°C
Dew
Point
°C
Rel
Hum
%
Delta-T
°C
Wind Press
QNH
hPa
Press
MSL
hPa
Rain since
9am
mm
Dir  Spd
km/h
Gust
km/h
Spd
kts
Gust
kts
26/11:30pm 13.2 9.8 1.8 46 5.0 NNE 9 15 5 8 - - 0.0
26/11:00pm 12.9 8.8 2.2 48 4.7 NNE 13 19 7 10 - - 0.0
26/10:30pm 12.2 8.5 2.4 51 4.3 NNE 11 17 6 9 - - 0.0
26/10:00pm 11.8 8.2 2.8 54 4.0 NNE 11 20 6 11 - - 0.0
26/09:30pm 11.8 8.2 2.8 54 4.0 NNE 11 17 6 9 - - 0.0
26/09:00pm 12.1 8.8 2.3 51 4.3 NNE 9 15 5 8 - - 0.0
26/08:30pm 12.6 9.3 2.2 49 4.6 NNE 9 15 5 8 - - 0.0
26/08:00pm 13.1 9.4 2.4 48 4.7 NNE 11 17 6 9 - - 0.0
26/07:30pm 12.9 9.6 2.2 48 4.7 NNE 9 15 5 8 - - 0.0
26/07:00pm 13.6 10.2 1.6 44 5.3 NNE 9 13 5 7 - - 0.0
26/06:30pm 15.1 10.8 1.3 39 6.1 N 13 19 7 10 - - 0.0
26/06:00pm 16.1 11.0 1.0 36 6.7 N 17 24 9 13 - - 0.0
26/05:30pm 16.4 12.3 2.1 38 6.5 N 13 20 7 11 - - 0.0
26/05:00pm 17.2 13.6 2.8 38 6.7 N 11 17 6 9 - - 0.0
26/04:30pm 17.7 13.3 2.8 37 6.9 N 15 24 8 13 - - 0.0
26/04:00pm 18.1 13.6 2.4 35 7.3 N 15 20 8 11 - - 0.0
26/03:30pm 18.2 13.8 2.9 36 7.2 N 15 22 8 12 - - 0.0
26/03:00pm 18.3 11.6 1.3 32 7.7 N 26 37 14 20 - - 0.0
26/02:30pm 18.9 13.1 2.3 33 7.7 N 22 37 12 20 - - 0.0
26/02:00pm 19.6 13.8 2.5 32 8.0 N 22 35 12 19 - - 0.0
26/01:30pm 17.1 11.2 1.5 35 7.0 N 22 32 12 17 - - 0.0
26/01:00pm 16.7 11.2 2.0 37 6.7 N 20 33 11 18 - - 0.0
26/12:30pm 17.4 10.7 1.4 34 7.2 N 26 35 14 19 - - 0.0
26/12:00pm 17.2 11.9 3.1 39 6.6 N 20 32 11 17 - - 0.0
26/11:30am 16.9 9.5 2.1 37 6.7 N 30 46 16 25 - - 0.0
26/11:00am 15.8 10.4 2.6 41 6.0 N 20 39 11 21 - - 0.0
26/10:30am 14.6 7.7 2.8 45 5.3 N 28 43 15 23 - - 0.0
26/10:00am 13.7 7.1 2.3 46 5.1 N 26 41 14 22 - - 0.0
26/09:30am 12.6 6.8 4.3 57 3.8 N 24 37 13 20 - - 0.0
26/09:00am 12.3 6.9 4.5 59 3.6 N 22 35 12 19 - - 0.0
26/08:30am 10.9 6.4 5.9 71 2.4 NNE 19 35 10 19 - - 0.0
26/08:00am 9.0 4.5 6.3 83 1.3 NNE 19 28 10 15 - - 0.0
26/07:30am 7.9 3.4 5.9 87 0.9 NNE 19 28 10 15 - - 0.0
26/07:00am 7.5 3.4 6.0 90 0.7 NNE 17 24 9 13 - - 0.0
26/06:30am 6.8 2.6 5.6 92 0.5 NNE 17 24 9 13 - - 0.0
26/06:00am 6.5 3.0 5.5 93 0.4 NNE 13 20 7 11 - - 0.0
26/05:30am 6.6 3.1 5.6 93 0.5 NNE 13 19 7 10 - - 0.0
26/05:00am 6.7 3.7 5.8 94 0.4 NNE 11 17 6 9 - - 0.0
26/04:30am 6.7 3.3 5.8 94 0.4 NNE 13 20 7 11 - - 0.0
26/04:00am 6.7 3.3 5.8 94 0.4 NE 13 20 7 11 - - 0.0
26/03:30am 6.0 3.2 5.1 94 0.4 NE 9 13 5 7 - - 0.0
26/03:00am 6.2 3.4 5.2 93 0.4 NE 9 13 5 7 - - 0.0
26/02:30am 6.6 3.9 5.6 93 0.5 NE 9 11 5 6 - - 0.0
26/02:00am 6.9 3.9 5.8 93 0.5 NE 11 15 6 8 - - 0.0
26/01:30am 6.8 4.1 5.6 92 0.5 NNE 9 13 5 7 - - 0.0
26/01:00am 7.3 5.0 5.9 91 0.6 NE 7 13 4 7 - - 0.0
26/12:30am 8.1 5.2 6.6 90 0.7 NE 11 17 6 9 - - 0.0
26/12:00am 8.3 5.4 6.4 88 0.9 NE 11 17 6 9 - - 0.0
 
Date/Time
WST
Temp
°C
App
Temp
°C
Dew
Point
°C
Rel
Hum
%
Delta-T
°C
Wind Press
QNH
hPa
Press
MSL
hPa
Rain since
9am
mm
Dir  Spd
km/h
Gust
km/h
Spd
kts
Gust
kts
25/11:30pm 8.1 5.5 6.1 87 0.9 NE 9 17 5 9 - - 0.0
25/11:00pm 8.2 5.6 6.0 86 1.0 NNE 9 13 5 7 - - 0.0
25/10:30pm 7.3 5.0 5.6 89 0.8 NNE 7 9 4 5 - - 0.0
25/10:00pm 4.6 2.3 2.5 86 0.9 NNE 4 6 2 3 - - 0.0
25/09:30pm 5.9 3.3 3.4 84 1.1 NNE 6 7 3 4 - - 0.0
25/09:00pm 6.6 4.5 3.8 82 1.2 NNE 4 6 2 3 - - 0.0
25/08:30pm 8.0 6.7 4.2 77 1.7 CALM 0 0 0 0 - - 0.0
25/08:00pm 8.9 6.7 5.5 79 1.6 ENE 6 7 3 4 - - 0.0
25/07:30pm 9.3 7.1 5.5 77 1.7 N 6 6 3 3 - - 0.0
25/07:00pm 8.3 5.8 3.9 74 1.9 NNE 6 6 3 3 - - 0.0
25/06:30pm 10.0 8.0 4.4 68 2.5 NE 4 6 2 3 - - 0.0
25/06:00pm 11.4 9.1 4.8 64 3.0 NE 6 7 3 4 - - 0.0
25/05:30pm 13.0 10.1 4.4 56 4.0 NE 9 15 5 8 - - 0.0
25/05:00pm 13.4 10.6 5.3 58 3.8 NE 9 13 5 7 - - 0.0
25/04:30pm 13.8 10.0 3.9 51 4.6 NE 13 22 7 12 - - 0.0
25/04:00pm 13.9 9.9 5.0 55 4.2 ENE 15 22 8 12 - - 0.0
25/03:30pm 14.3 11.2 5.4 55 4.3 NE 11 19 6 10 - - 0.0
25/03:00pm 14.1 10.1 4.9 54 4.3 NE 15 20 8 11 - - 0.0
25/02:30pm 14.3 10.8 5.4 55 4.3 NE 13 20 7 11 - - 0.0
25/02:00pm 14.1 10.2 5.5 56 4.1 NE 15 22 8 12 - - 0.0
25/01:30pm 14.1 10.6 5.5 56 4.1 ENE 13 20 7 11 - - 0.0
25/01:00pm 13.7 10.7 5.8 59 3.8 E 11 20 6 11 - - 0.0
25/12:30pm 13.3 9.5 5.7 60 3.6 E 15 26 8 14 - - 0.0
25/12:00pm 12.9 9.9 6.0 63 3.3 NE 11 17 6 9 - - 0.0
25/11:30am 12.7 9.3 5.8 63 3.3 ENE 13 20 7 11 - - 0.0
25/11:00am 12.2 8.9 6.5 68 2.7 E 13 24 7 13 - - 0.0
25/10:30am 11.4 7.7 6.3 71 2.4 ESE 15 20 8 11 - - 0.0
25/10:00am 10.8 6.7 6.0 72 2.3 ENE 17 22 9 12 - - 0.0
25/09:30am 9.8 5.9 5.2 73 2.1 E 15 22 8 12 - - 0.0
25/09:00am 9.2 4.9 5.4 77 1.7 E 17 24 9 13 - - 1.2
25/08:30am 8.3 6.6 7.4 94 0.4 E 6 7 3 4 - - 1.2
25/08:00am 6.3 5.3 5.6 95 0.3 CALM 0 0 0 0 - - 1.2
25/07:30am 4.6 3.3 3.9 95 0.3 CALM 0 0 0 0 - - 1.2
25/07:00am 2.1 0.3 1.4 95 0.3 CALM 0 0 0 0 - - 1.2
25/06:30am 0.9 -1.4 0.2 95 0.3 NW 2 6 1 3 - - 1.0
25/06:00am 0.7 -1.3 0.0 95 0.3 CALM 0 0 0 0 - - 1.0
25/05:30am 0.6 -1.4 -0.1 95 0.3 CALM 0 2 0 1 - - 1.0
25/05:00am 0.2 -2.2 -0.5 95 0.3 NW 2 6 1 3 - - 1.0
25/04:30am -0.9 -4.2 -1.6 95 0.2 WNW 6 6 3 3 - - 1.0
25/04:00am -0.6 -3.1 -1.3 95 0.2 WNW 2 4 1 2 - - 1.0
25/03:30am -1.3 -4.3 -2.0 95 0.2 WNW 4 6 2 3 - - 1.0
25/03:00am -1.1 -4.1 -1.8 95 0.2 WNW 4 4 2 2 - - 1.0
25/02:30am -0.8 -4.1 -1.5 95 0.2 WNW 6 6 3 3 - - 1.0
25/02:00am -0.9 -4.3 -1.7 94 0.2 NW 6 7 3 4 - - 1.0
25/01:30am -0.6 -3.5 -1.4 94 0.3 N 4 6 2 3 - - 1.0
25/01:00am -0.2 -3.1 -1.0 94 0.3 W 4 6 2 3 - - 1.0
25/12:30am 0.3 -1.8 -0.7 93 0.4 CALM 0 0 0 0 - - 1.0
25/12:00am 0.8 -1.2 -0.2 93 0.4 CALM 0 0 0 0 - - 1.0
 
Date/Time
WST
Temp
°C
App
Temp
°C
Dew
Point
°C
Rel
Hum
%
Delta-T
°C
Wind Press
QNH
hPa
Press
MSL
hPa
Rain since
9am
mm
Dir  Spd
km/h
Gust
km/h
Spd
kts
Gust
kts
24/11:30pm 1.5 -0.4 0.3 92 0.4 CALM 0 0 0 0 - - 1.0
24/11:00pm 2.3 0.5 1.0 91 0.5 CALM 0 0 0 0 - - 1.0
24/10:30pm 3.2 1.5 1.7 90 0.6 CALM 0 0 0 0 - - 1.0
24/10:00pm 4.5 3.0 2.8 89 0.7 CALM 0 0 0 0 - - 1.0
24/09:30pm 6.3 4.3 4.5 88 0.8 SSE 4 7 2 4 - - 1.0
24/09:00pm 7.1 4.7 5.4 89 0.8 SSE 7 13 4 7 - - 1.0
24/08:30pm 8.0 5.5 6.5 90 0.7 SE 9 11 5 6 - - 1.0
24/08:00pm 8.1 6.0 6.7 91 0.7 SSE 7 11 4 6 - - 1.0
24/07:30pm 8.2 6.3 6.8 91 0.7 SSE 6 9 3 5 - - 1.0
24/07:00pm 8.4 5.6 7.0 91 0.7 SSE 11 15 6 8 - - 1.0
24/06:30pm 8.5 5.0 7.3 92 0.6 SSE 15 20 8 11 - - 1.0

Other Formats:

Comma delimited format used in spreadsheet applications
http://www.bom.gov.au/fwo/IDW60801/IDW60801.95639.axf

JavaScript Object Notation format (JSON) in row-major order
http://www.bom.gov.au/fwo/IDW60801/IDW60801.95639.json